createdAt,value
2022-10-05T00:01:25.656Z,10.43
2022-10-05T00:03:55.146Z,10.60
2022-10-05T00:06:24.260Z,10.58
2022-10-05T00:08:52.668Z,10.52
2022-10-05T00:11:21.008Z,10.38
2022-10-05T00:13:49.703Z,10.51
2022-10-05T00:16:21.546Z,10.53
2022-10-05T00:18:52.282Z,10.57
2022-10-05T00:21:23.962Z,10.54
2022-10-05T00:23:53.390Z,10.53
2022-10-05T00:26:23.835Z,10.46
2022-10-05T00:28:52.875Z,10.49
2022-10-05T00:31:25.340Z,10.45
2022-10-05T00:33:55.084Z,10.41
2022-10-05T00:36:23.587Z,10.27
2022-10-05T00:38:52.063Z,10.36
2022-10-05T00:41:26.304Z,10.33
2022-10-05T00:44:17.121Z,10.36
2022-10-05T00:46:57.139Z,10.30
2022-10-05T00:49:50.844Z,10.26
2022-10-05T00:52:32.531Z,10.26
2022-10-05T00:55:09.822Z,10.24
2022-10-05T00:57:51.422Z,10.26
2022-10-05T01:00:26.117Z,10.23
2022-10-05T01:03:03.159Z,10.27
2022-10-05T01:05:50.637Z,10.28
2022-10-05T01:08:31.913Z,10.44
2022-10-05T01:11:10.482Z,10.10
2022-10-05T01:13:51.025Z,10.09
2022-10-05T01:16:26.885Z,10.33
2022-10-05T01:19:03.084Z,10.39
2022-10-05T01:21:37.767Z,10.34
2022-10-05T01:24:41.842Z,10.36
2022-10-05T01:27:44.706Z,10.32
2022-10-05T01:30:15.537Z,10.25
2022-10-05T01:32:49.794Z,10.26
2022-10-05T01:35:34.823Z,10.32
2022-10-05T01:38:21.492Z,10.25
2022-10-05T01:41:00.275Z,10.24
2022-10-05T01:43:37.300Z,10.32
2022-10-05T01:46:18.046Z,10.26
2022-10-05T01:48:56.691Z,10.10
2022-10-05T01:51:38.019Z,10.19
2022-10-05T01:54:20.314Z,10.14
2022-10-05T01:56:58.602Z,9.90
2022-10-05T01:59:37.769Z,10.06
2022-10-05T02:02:10.990Z,10.13
2022-10-05T02:05:01.447Z,9.99
2022-10-05T02:07:35.828Z,10.15
2022-10-05T02:10:11.528Z,9.76
2022-10-05T02:12:40.210Z,9.95
2022-10-05T02:15:16.207Z,10.25
2022-10-05T02:17:49.670Z,10.18
2022-10-05T02:20:23.972Z,10.15
2022-10-05T02:22:55.949Z,10.30
2022-10-05T02:25:29.138Z,10.21
2022-10-05T02:28:02.100Z,10.23
2022-10-05T02:30:35.394Z,10.19
2022-10-05T02:33:08.140Z,10.17
2022-10-05T02:35:36.907Z,10.18
2022-10-05T02:38:13.367Z,10.16
2022-10-05T02:40:52.928Z,10.15
2022-10-05T02:43:31.595Z,10.14
2022-10-05T02:46:15.014Z,10.23
2022-10-05T02:48:51.218Z,9.95
2022-10-05T02:51:25.783Z,9.95
2022-10-05T02:54:09.551Z,10.05
2022-10-05T02:56:47.548Z,10.02
2022-10-05T02:59:23.530Z,10.01
2022-10-05T03:01:58.458Z,10.03
2022-10-05T03:04:38.951Z,10.04
2022-10-05T03:07:15.724Z,10.01
2022-10-05T03:09:50.724Z,10.02
2022-10-05T03:12:36.353Z,10.01
2022-10-05T03:15:18.278Z,9.97
2022-10-05T03:17:56.100Z,9.97
2022-10-05T03:20:37.506Z,9.96
2022-10-05T03:23:11.154Z,9.95
2022-10-05T03:26:03.902Z,9.95
2022-10-05T03:28:41.523Z,9.87
2022-10-05T03:31:19.945Z,9.85
2022-10-05T03:33:57.399Z,9.87
2022-10-05T03:36:31.607Z,9.90
2022-10-05T03:39:10.757Z,9.12
2022-10-05T03:41:49.159Z,9.84
2022-10-05T03:44:38.299Z,9.85
2022-10-05T03:47:16.495Z,9.81
2022-10-05T03:50:15.108Z,9.84
2022-10-05T03:52:49.128Z,9.54
2022-10-05T03:55:25.123Z,9.82
2022-10-05T03:57:57.951Z,9.65
2022-10-05T04:00:27.763Z,9.61
2022-10-05T04:03:00.804Z,9.70
2022-10-05T04:05:33.639Z,9.79
2022-10-05T04:08:08.469Z,9.80
2022-10-05T04:10:44.750Z,9.79
2022-10-05T04:13:18.407Z,9.75
2022-10-05T04:15:54.336Z,9.55
2022-10-05T04:18:28.266Z,9.68
2022-10-05T04:21:03.401Z,9.60
2022-10-05T04:23:41.018Z,9.63
2022-10-05T04:26:16.152Z,9.61
2022-10-05T04:28:51.733Z,9.61
2022-10-05T04:31:35.368Z,9.55
2022-10-05T04:34:08.900Z,9.51
2022-10-05T04:36:47.395Z,9.52
2022-10-05T04:39:25.147Z,9.48
2022-10-05T04:42:07.690Z,9.47
2022-10-05T04:44:50.118Z,9.46
2022-10-05T04:47:41.702Z,9.44
2022-10-05T04:50:23.734Z,9.39
2022-10-05T04:53:03.737Z,9.36
2022-10-05T04:55:39.462Z,9.40
2022-10-05T04:58:21.152Z,9.34
2022-10-05T05:01:01.182Z,8.81
2022-10-05T05:03:51.631Z,9.30
2022-10-05T05:06:31.999Z,8.98
2022-10-05T05:09:25.986Z,9.28
2022-10-05T05:12:05.176Z,9.18
2022-10-05T05:15:06.338Z,9.28
2022-10-05T05:17:52.904Z,9.30
2022-10-05T05:20:28.968Z,9.24
2022-10-05T05:23:07.709Z,9.24
2022-10-05T05:25:49.871Z,9.32
2022-10-05T05:28:25.475Z,9.33
2022-10-05T05:31:02.306Z,9.31
2022-10-05T05:33:40.409Z,9.30
2022-10-05T05:36:23.405Z,9.29
2022-10-05T05:39:08.675Z,8.93
2022-10-05T05:41:40.822Z,9.29
2022-10-05T05:44:23.012Z,9.25
2022-10-05T05:47:03.875Z,9.27
2022-10-05T05:50:06.998Z,9.28
2022-10-05T05:52:40.882Z,9.08
2022-10-05T05:55:18.245Z,9.29
2022-10-05T05:57:52.289Z,9.34
2022-10-05T06:00:23.615Z,9.35
2022-10-05T06:02:58.627Z,9.37
2022-10-05T06:05:32.774Z,9.39
2022-10-05T06:08:08.704Z,9.42
2022-10-05T06:10:44.920Z,9.46
2022-10-05T06:13:19.579Z,9.47
2022-10-05T06:15:54.338Z,9.51
2022-10-05T06:18:24.965Z,9.60
2022-10-05T06:20:59.250Z,9.58
2022-10-05T06:23:36.002Z,9.57
2022-10-05T06:26:19.071Z,9.51
2022-10-05T06:28:56.535Z,9.68
2022-10-05T06:31:57.901Z,9.77
2022-10-05T06:34:41.980Z,9.64
2022-10-05T06:37:17.591Z,9.86
2022-10-05T06:40:02.013Z,9.85
2022-10-05T06:42:49.567Z,9.95
2022-10-05T06:45:28.276Z,10.12
2022-10-05T06:48:05.510Z,10.09
2022-10-05T06:50:40.039Z,10.07
2022-10-05T06:53:21.506Z,10.12
2022-10-05T06:55:57.852Z,10.06
2022-10-05T06:58:45.816Z,10.09
2022-10-05T07:01:29.929Z,10.32
2022-10-05T07:04:23.680Z,10.33
2022-10-05T07:06:57.036Z,10.36
2022-10-05T07:09:36.193Z,10.47
2022-10-05T07:12:22.819Z,10.23
2022-10-05T07:15:04.426Z,10.67
2022-10-05T07:17:51.285Z,10.83
2022-10-05T07:20:28.059Z,10.85
2022-10-05T07:23:14.936Z,10.91
2022-10-05T07:25:51.439Z,11.19
2022-10-05T07:28:29.485Z,11.28
2022-10-05T07:31:02.009Z,11.44
2022-10-05T07:33:41.538Z,11.46
2022-10-05T07:36:34.521Z,11.27
2022-10-05T07:39:07.548Z,11.56
2022-10-05T07:41:43.792Z,11.55
2022-10-05T07:44:17.347Z,11.80
2022-10-05T07:46:53.090Z,11.81
2022-10-05T07:49:34.784Z,11.88
2022-10-05T07:52:08.086Z,11.79
2022-10-05T07:54:45.995Z,11.94
2022-10-05T07:57:23.754Z,11.88
2022-10-05T08:00:02.037Z,12.00
2022-10-05T08:02:36.709Z,11.94
2022-10-05T08:05:14.111Z,12.03
2022-10-05T08:07:43.110Z,12.00
2022-10-05T08:10:28.288Z,12.10
2022-10-05T08:13:04.485Z,11.97
2022-10-05T08:15:38.814Z,12.16
2022-10-05T08:18:15.774Z,12.03
2022-10-05T08:20:50.000Z,12.02
2022-10-05T08:23:25.298Z,11.97
2022-10-05T08:26:06.824Z,12.01
2022-10-05T08:28:38.713Z,12.05
2022-10-05T08:31:18.701Z,11.90
2022-10-05T08:33:55.531Z,11.98
2022-10-05T08:36:43.704Z,11.85
2022-10-05T08:39:18.471Z,11.94
2022-10-05T08:42:13.355Z,11.80
2022-10-05T08:45:12.165Z,11.97
2022-10-05T08:48:06.519Z,11.93
2022-10-05T08:50:55.381Z,11.62
2022-10-05T08:53:37.201Z,11.78
2022-10-05T08:56:30.766Z,11.88
2022-10-05T08:59:27.220Z,11.88
2022-10-05T09:02:15.651Z,11.83
2022-10-05T09:05:19.383Z,11.90
2022-10-05T09:08:40.946Z,11.82
2022-10-05T09:11:16.844Z,11.74
2022-10-05T09:14:11.730Z,11.58
2022-10-05T09:17:17.102Z,11.63
2022-10-05T09:20:19.138Z,11.55
2022-10-05T09:23:14.527Z,11.54
2022-10-05T09:25:57.667Z,11.59
2022-10-05T09:28:32.687Z,11.56
2022-10-05T09:31:27.080Z,11.70
2022-10-05T09:34:22.779Z,11.59
2022-10-05T09:37:32.038Z,11.64
2022-10-05T09:40:45.258Z,11.72
2022-10-05T09:43:56.442Z,11.68
2022-10-05T09:46:50.020Z,11.84
2022-10-05T09:49:56.154Z,11.88
2022-10-05T09:52:50.570Z,11.96
2022-10-05T09:55:56.849Z,12.05
2022-10-05T09:58:51.145Z,12.17
2022-10-05T10:01:33.546Z,12.10
2022-10-05T10:04:22.417Z,12.37
2022-10-05T10:07:26.055Z,12.34
2022-10-05T10:10:30.574Z,12.37
2022-10-05T10:13:11.029Z,12.45
2022-10-05T10:16:06.026Z,12.66
2022-10-05T10:19:04.075Z,12.68
2022-10-05T10:22:03.167Z,12.63
2022-10-05T10:24:59.787Z,12.80
2022-10-05T10:27:49.159Z,12.63
2022-10-05T10:30:42.945Z,13.01
2022-10-05T10:33:34.399Z,13.04
2022-10-05T10:36:13.225Z,13.35
2022-10-05T10:38:52.875Z,13.48
2022-10-05T10:42:01.623Z,13.45
2022-10-05T10:45:14.153Z,13.49
2022-10-05T10:48:00.458Z,13.59
2022-10-05T10:51:01.897Z,13.50
2022-10-05T10:54:12.683Z,13.73
2022-10-05T10:56:52.280Z,13.86
2022-10-05T11:00:02.446Z,13.96
2022-10-05T11:02:53.126Z,14.05
2022-10-05T11:05:34.637Z,14.05
2022-10-05T11:08:38.299Z,14.13
2022-10-05T11:11:25.408Z,14.21
2022-10-05T11:14:06.443Z,14.36
2022-10-05T11:17:22.946Z,14.42
2022-10-05T11:20:05.196Z,14.42
2022-10-05T11:22:51.663Z,14.50
2022-10-05T11:25:44.552Z,14.51
2022-10-05T11:28:30.821Z,14.63
2022-10-05T11:31:19.653Z,14.63
2022-10-05T11:34:30.927Z,14.79
2022-10-05T11:37:29.519Z,14.87
2022-10-05T11:40:19.058Z,14.97
2022-10-05T11:43:22.395Z,15.02
2022-10-05T11:46:07.773Z,14.98
2022-10-05T11:49:00.513Z,15.13
2022-10-05T11:51:40.483Z,15.15
2022-10-05T11:54:58.463Z,15.17
2022-10-05T11:57:34.414Z,15.25
2022-10-05T12:00:13.190Z,15.18
2022-10-05T12:03:05.188Z,15.37
2022-10-05T12:05:42.647Z,15.33
2022-10-05T12:08:24.158Z,15.51
2022-10-05T12:11:04.193Z,15.42
2022-10-05T12:13:41.791Z,15.60
2022-10-05T12:16:16.340Z,15.56
2022-10-05T12:18:54.775Z,15.60
2022-10-05T12:21:33.357Z,15.69
2022-10-05T12:24:07.231Z,15.73
2022-10-05T12:26:40.733Z,15.69
2022-10-05T12:29:18.120Z,15.78
2022-10-05T12:31:57.042Z,15.52
2022-10-05T12:34:44.954Z,15.77
2022-10-05T12:37:38.755Z,15.80
2022-10-05T12:40:19.183Z,15.84
2022-10-05T12:42:56.162Z,15.82
2022-10-05T12:45:33.010Z,15.88
2022-10-05T12:48:18.992Z,15.85
2022-10-05T12:50:51.975Z,15.87
2022-10-05T12:53:37.590Z,15.81
2022-10-05T12:56:11.933Z,15.77
2022-10-05T12:58:53.190Z,15.81
2022-10-05T13:01:34.382Z,15.80
2022-10-05T13:04:18.912Z,15.76
2022-10-05T13:06:58.007Z,15.76
2022-10-05T13:09:33.523Z,15.77
2022-10-05T13:12:08.942Z,15.39
2022-10-05T13:14:50.304Z,15.86
2022-10-05T13:17:25.658Z,15.67
2022-10-05T13:20:00.424Z,15.92
2022-10-05T13:22:45.355Z,15.96
2022-10-05T13:25:24.030Z,15.79
2022-10-05T13:28:14.983Z,15.88
2022-10-05T13:30:52.149Z,16.02
2022-10-05T13:33:31.368Z,15.97
2022-10-05T13:36:06.631Z,15.76
2022-10-05T13:38:49.876Z,15.84
2022-10-05T13:41:29.252Z,15.75
2022-10-05T13:44:13.515Z,15.73
2022-10-05T13:46:49.493Z,15.68
2022-10-05T13:49:29.062Z,15.51
2022-10-05T13:52:07.753Z,15.70
2022-10-05T13:54:47.202Z,15.65
2022-10-05T13:57:26.891Z,15.70
2022-10-05T13:59:59.021Z,15.66
2022-10-05T14:02:31.052Z,15.68
2022-10-05T14:05:04.635Z,15.73
2022-10-05T14:07:38.917Z,15.16
2022-10-05T14:10:15.101Z,15.78
2022-10-05T14:12:45.944Z,15.75
2022-10-05T14:15:22.773Z,15.77
2022-10-05T14:17:52.869Z,15.71
2022-10-05T14:20:25.228Z,15.68
2022-10-05T14:22:59.063Z,15.70
2022-10-05T14:25:30.142Z,15.62
2022-10-05T14:28:04.057Z,15.70
2022-10-05T14:30:34.016Z,15.50
2022-10-05T14:33:16.820Z,15.71
2022-10-05T14:35:50.982Z,15.64
2022-10-05T14:38:21.655Z,15.69
2022-10-05T14:41:16.971Z,15.67
2022-10-05T14:43:56.054Z,15.63
2022-10-05T14:46:28.360Z,15.65
2022-10-05T14:49:14.515Z,15.62
2022-10-05T14:51:43.928Z,15.63
2022-10-05T14:54:30.079Z,15.56
2022-10-05T14:57:07.692Z,15.53
2022-10-05T15:00:02.559Z,15.48
2022-10-05T15:03:15.089Z,15.45
2022-10-05T15:05:49.451Z,15.48
2022-10-05T15:08:42.844Z,15.47
2022-10-05T15:11:20.152Z,15.44
2022-10-05T15:13:50.251Z,15.34
2022-10-05T15:16:22.425Z,15.28
2022-10-05T15:18:58.065Z,15.23
2022-10-05T15:21:40.751Z,15.18
2022-10-05T15:24:17.381Z,15.19
2022-10-05T15:26:51.736Z,15.18
2022-10-05T15:29:47.298Z,14.98
2022-10-05T15:32:29.351Z,15.06
2022-10-05T15:35:14.731Z,15.13
2022-10-05T15:37:47.573Z,15.08
2022-10-05T15:40:23.620Z,15.02
2022-10-05T15:42:56.997Z,15.03
2022-10-05T15:45:32.472Z,14.99
2022-10-05T15:48:04.463Z,14.95
2022-10-05T15:50:38.873Z,14.98
2022-10-05T15:53:15.895Z,14.98
2022-10-05T15:55:51.541Z,14.92
2022-10-05T15:58:35.832Z,14.83
2022-10-05T16:01:11.770Z,14.90
2022-10-05T16:03:49.318Z,14.78
2022-10-05T16:06:49.633Z,14.92
2022-10-05T16:09:35.858Z,14.93
2022-10-05T16:12:15.703Z,14.91
2022-10-05T16:15:00.155Z,14.90
2022-10-05T16:17:48.206Z,14.86
2022-10-05T16:20:31.456Z,14.80
2022-10-05T16:23:06.694Z,14.28
2022-10-05T16:25:51.846Z,14.80
2022-10-05T16:28:31.178Z,14.76
2022-10-05T16:31:06.883Z,14.73
2022-10-05T16:33:54.555Z,14.61
2022-10-05T16:36:36.312Z,14.74
2022-10-05T16:39:13.210Z,14.74
2022-10-05T16:41:50.335Z,14.69
2022-10-05T16:44:30.351Z,14.65
2022-10-05T16:47:04.844Z,14.50
2022-10-05T16:49:45.435Z,14.52
2022-10-05T16:52:19.086Z,14.58
2022-10-05T16:54:49.878Z,14.40
2022-10-05T16:57:22.750Z,14.47
2022-10-05T17:00:19.082Z,14.47
2022-10-05T17:03:01.868Z,14.39
2022-10-05T17:05:44.358Z,14.30
2022-10-05T17:08:36.960Z,14.43
2022-10-05T17:11:17.039Z,14.18
2022-10-05T17:14:17.337Z,14.39
2022-10-05T17:17:05.781Z,14.40
2022-10-05T17:19:56.219Z,14.07
2022-10-05T17:22:32.014Z,14.31
2022-10-05T17:25:09.079Z,14.01
2022-10-05T17:27:53.811Z,14.25
2022-10-05T17:30:36.304Z,13.78
2022-10-05T17:33:23.573Z,13.70
2022-10-05T17:35:57.063Z,14.20
2022-10-05T17:38:47.563Z,14.18
2022-10-05T17:41:19.233Z,14.13
2022-10-05T17:44:24.656Z,14.13
2022-10-05T17:46:55.542Z,14.11
2022-10-05T17:50:15.101Z,14.16
2022-10-05T17:53:02.625Z,13.92
2022-10-05T17:56:03.542Z,14.09
2022-10-05T17:59:00.864Z,14.05
2022-10-05T18:01:31.796Z,13.71
2022-10-05T18:04:34.629Z,14.04
2022-10-05T18:07:06.704Z,14.06
2022-10-05T18:09:39.492Z,14.05
2022-10-05T18:12:40.894Z,13.82
2022-10-05T18:15:49.058Z,14.00
2022-10-05T18:18:50.479Z,14.05
2022-10-05T18:21:34.474Z,14.03
2022-10-05T18:24:05.541Z,13.91
2022-10-05T18:26:45.160Z,14.04
2022-10-05T18:29:43.787Z,14.05
2022-10-05T18:32:26.691Z,13.83
2022-10-05T18:35:02.288Z,14.10
2022-10-05T18:37:50.234Z,14.01
2022-10-05T18:40:34.532Z,14.06
2022-10-05T18:43:17.226Z,13.83
2022-10-05T18:46:01.203Z,14.09
2022-10-05T18:48:36.091Z,14.09
2022-10-05T18:51:16.923Z,14.09
2022-10-05T18:53:58.435Z,14.13
2022-10-05T18:56:35.405Z,14.08
2022-10-05T18:59:20.171Z,14.08
2022-10-05T19:02:03.350Z,13.76
2022-10-05T19:04:46.671Z,14.13
2022-10-05T19:07:26.177Z,14.26
2022-10-05T19:10:14.070Z,14.17
2022-10-05T19:12:55.511Z,14.11
2022-10-05T19:15:30.532Z,14.12
2022-10-05T19:18:25.904Z,14.10
2022-10-05T19:21:03.608Z,14.07
2022-10-05T19:23:52.478Z,14.06
2022-10-05T19:26:36.928Z,13.95
2022-10-05T19:29:14.351Z,13.88
2022-10-05T19:31:49.649Z,14.18
2022-10-05T19:34:35.852Z,13.91
2022-10-05T19:37:10.577Z,13.92
2022-10-05T19:39:47.542Z,14.12
2022-10-05T19:42:42.223Z,14.11
2022-10-05T19:45:20.911Z,14.20
2022-10-05T19:48:05.435Z,14.14
2022-10-05T19:50:39.001Z,14.13
2022-10-05T19:53:16.546Z,14.16
2022-10-05T19:55:47.969Z,14.13
2022-10-05T19:58:22.809Z,14.22
2022-10-05T20:01:03.120Z,14.24
2022-10-05T20:03:35.957Z,14.25
2022-10-05T20:06:10.225Z,14.09
2022-10-05T20:08:42.515Z,14.25
2022-10-05T20:11:15.188Z,14.33
2022-10-05T20:13:46.777Z,14.31
2022-10-05T20:16:47.180Z,14.41
2022-10-05T20:19:54.393Z,14.40
2022-10-05T20:22:46.988Z,14.40
2022-10-05T20:25:33.038Z,14.45
2022-10-05T20:28:03.472Z,14.42
2022-10-05T20:30:35.448Z,14.47
2022-10-05T20:33:10.879Z,14.45
2022-10-05T20:35:39.326Z,14.53
2022-10-05T20:38:09.090Z,14.49
2022-10-05T20:40:37.403Z,14.37
2022-10-05T20:43:05.725Z,14.59
2022-10-05T20:45:34.176Z,14.26
2022-10-05T20:48:03.826Z,14.32
2022-10-05T20:50:32.893Z,14.46
2022-10-05T20:53:01.565Z,14.47
2022-10-05T20:55:32.320Z,14.34
2022-10-05T20:58:00.835Z,14.41
2022-10-05T21:00:50.961Z,14.45
2022-10-05T21:03:19.500Z,14.50
2022-10-05T21:05:48.639Z,14.44
2022-10-05T21:08:18.006Z,14.44
2022-10-05T21:10:47.790Z,14.42
2022-10-05T21:13:16.160Z,14.39
2022-10-05T21:15:45.075Z,14.54
2022-10-05T21:18:13.448Z,14.45
2022-10-05T21:20:42.006Z,14.47
2022-10-05T21:23:12.484Z,14.47
2022-10-05T21:25:40.816Z,14.47
2022-10-05T21:28:10.916Z,14.44
2022-10-05T21:30:39.262Z,14.46
2022-10-05T21:33:07.703Z,14.50
2022-10-05T21:35:36.256Z,14.52
2022-10-05T21:38:05.020Z,14.43
2022-10-05T21:40:33.551Z,14.43
2022-10-05T21:43:02.778Z,14.41
2022-10-05T21:45:32.809Z,14.41
2022-10-05T21:48:01.718Z,14.40
2022-10-05T21:50:30.435Z,14.36
2022-10-05T21:53:00.864Z,14.35
2022-10-05T21:55:29.472Z,14.35
2022-10-05T21:57:59.195Z,13.88
2022-10-05T22:00:27.626Z,14.29
2022-10-05T22:02:57.392Z,14.35
2022-10-05T22:05:25.836Z,14.32
2022-10-05T22:07:55.104Z,14.14
2022-10-05T22:10:23.596Z,14.31
2022-10-05T22:12:51.967Z,14.24
2022-10-05T22:15:20.648Z,14.24
2022-10-05T22:17:49.318Z,13.95
2022-10-05T22:20:20.497Z,14.15
2022-10-05T22:22:48.915Z,14.26
2022-10-05T22:25:17.371Z,14.24
2022-10-05T22:27:46.326Z,12.40
2022-10-05T22:30:15.768Z,14.20
2022-10-05T22:32:44.252Z,14.11
2022-10-05T22:35:12.649Z,14.20
2022-10-05T22:37:42.516Z,14.27
2022-10-05T22:40:12.054Z,14.27
2022-10-05T22:42:41.628Z,14.19
2022-10-05T22:45:11.012Z,14.22
2022-10-05T22:47:39.371Z,14.19
2022-10-05T22:50:09.573Z,14.18
2022-10-05T22:52:38.142Z,14.17
2022-10-05T22:55:09.371Z,14.16
2022-10-05T22:57:41.108Z,13.93
2022-10-05T23:00:11.743Z,14.24
2022-10-05T23:02:40.937Z,14.15
2022-10-05T23:05:13.370Z,14.10
2022-10-05T23:07:43.579Z,14.20
2022-10-05T23:10:16.290Z,13.94
2022-10-05T23:12:44.770Z,14.08
2022-10-05T23:15:13.571Z,14.05
2022-10-05T23:17:41.890Z,14.07
2022-10-05T23:20:11.223Z,13.55
2022-10-05T23:22:40.663Z,14.04
2022-10-05T23:25:10.275Z,14.06
2022-10-05T23:27:41.563Z,13.93
2022-10-05T23:30:12.242Z,13.91
2022-10-05T23:32:41.331Z,13.74
2022-10-05T23:35:11.186Z,13.95
2022-10-05T23:37:40.080Z,13.93
2022-10-05T23:40:12.396Z,13.92
2022-10-05T23:42:43.200Z,13.88
2022-10-05T23:45:13.438Z,13.92
2022-10-05T23:47:42.115Z,13.61
2022-10-05T23:50:11.334Z,13.86
2022-10-05T23:52:39.683Z,13.83
2022-10-05T23:55:08.842Z,13.75
2022-10-05T23:57:38.463Z,13.83
